Time;durP1;ratioP1;P1;durP2;ratioP2;P2;SDS_P1;SDS_P2;PMS_P1;PMS_P2;Temp;Humidity;BMP_temperature;BMP_pressure;BME280_temperature;BME280_humidity;BME280_pressure;Samples;Min_cycle;Max_cycle;Signal;HPM_P1;HPM_P2
2022/10/12 00:01:27;;;;;;;15.60;8.48;;;8.20;99.90;;;;;;5013070;28;20055;-74
2022/10/12 00:03:53;;;;;;;11.45;6.20;;;8.10;99.90;;;;;;5012981;28;20072;-74
2022/10/12 00:06:23;;;;;;;17.83;9.20;;;8.00;99.90;;;;;;5013032;28;20081;-74
2022/10/12 00:08:52;;;;;;;16.77;10.18;;;7.90;99.90;;;;;;5011183;28;20434;-74
2022/10/12 00:11:23;;;;;;;16.95;9.25;;;8.10;99.90;;;;;;5012837;28;20108;-73
2022/10/12 00:13:49;;;;;;;19.55;11.25;;;8.00;99.90;;;;;;5012718;28;20033;-74
2022/10/12 00:16:17;;;;;;;16.83;10.55;;;8.00;99.90;;;;;;5012854;28;20026;-74
2022/10/12 00:18:43;;;;;;;17.45;10.32;;;7.90;99.90;;;;;;5010924;28;20415;-74
2022/10/12 00:21:13;;;;;;;14.63;8.70;;;7.90;99.90;;;;;;5012593;28;20018;-74
2022/10/12 00:23:40;;;;;;;15.40;8.23;;;7.90;99.90;;;;;;5012344;28;20043;-74
2022/10/12 00:26:15;;;;;;;13.48;8.43;;;7.80;99.90;;;;;;5012448;28;20392;-73
2022/10/12 00:28:41;;;;;;;11.85;7.75;;;7.90;99.90;;;;;;5010895;28;20022;-73
2022/10/12 00:31:18;;;;;;;12.93;8.05;;;7.90;99.90;;;;;;5012482;28;20424;-73
2022/10/12 00:33:45;;;;;;;12.88;7.18;;;7.80;99.90;;;;;;5011070;28;20037;-73
2022/10/12 00:36:16;;;;;;;13.52;7.15;;;7.70;99.90;;;;;;5012238;28;20037;-73
2022/10/12 00:38:42;;;;;;;14.65;7.65;;;7.60;99.90;;;;;;5012033;28;20396;-72
2022/10/12 00:41:08;;;;;;;14.43;8.82;;;7.60;99.90;;;;;;5012303;28;20029;-73
2022/10/12 00:43:38;;;;;;;12.98;7.82;;;7.80;99.90;;;;;;5012366;28;20038;-73
2022/10/12 00:46:31;;;;;;;11.48;8.30;;;7.80;99.90;;;;;;5012171;28;20154;-73
2022/10/12 00:49:19;;;;;;;13.38;7.70;;;7.70;99.90;;;;;;5007288;28;20065;-74
2022/10/12 00:51:50;;;;;;;11.25;7.90;;;7.60;99.90;;;;;;5002329;28;20022;-74
2022/10/12 00:54:22;;;;;;;12.15;9.77;;;7.60;99.90;;;;;;5012523;28;20026;-74
2022/10/12 00:56:51;;;;;;;16.73;10.98;;;7.50;99.90;;;;;;5011936;28;20026;-74
2022/10/12 00:59:23;;;;;;;12.82;9.73;;;7.50;99.90;;;;;;5005604;28;20109;-74
2022/10/12 01:01:49;;;;;;;13.02;9.90;;;7.50;99.90;;;;;;5006135;28;20464;-74
2022/10/12 01:04:14;;;;;;;15.90;9.77;;;7.60;99.90;;;;;;5012162;28;20306;-74
2022/10/12 01:06:40;;;;;;;13.88;9.93;;;7.60;99.90;;;;;;5011868;28;20022;-73
2022/10/12 01:09:06;;;;;;;15.75;10.52;;;7.60;99.90;;;;;;5011611;28;20038;-74
2022/10/12 01:11:31;;;;;;;17.98;12.20;;;7.70;99.90;;;;;;5011835;28;20376;-74
2022/10/12 01:13:57;;;;;;;13.93;11.40;;;7.50;99.90;;;;;;5012153;28;20030;-73
2022/10/12 01:16:30;;;;;;;14.73;10.65;;;7.30;99.90;;;;;;5011833;28;20021;-73
2022/10/12 01:19:14;;;;;;;13.73;11.05;;;7.30;99.90;;;;;;5010290;28;20111;-73
2022/10/12 01:21:48;;;;;;;15.65;11.50;;;7.30;99.90;;;;;;5011716;28;20067;-73
2022/10/12 01:24:24;;;;;;;15.38;11.80;;;7.20;99.90;;;;;;5011899;28;20026;-74
2022/10/12 01:27:06;;;;;;;17.15;11.30;;;7.20;99.90;;;;;;5011605;28;20511;-73
2022/10/12 01:30:06;;;;;;;15.55;10.65;;;7.10;99.90;;;;;;5011826;28;20037;-74
2022/10/12 01:32:41;;;;;;;16.13;11.02;;;7.20;99.90;;;;;;5011711;28;20084;-74
2022/10/12 01:35:18;;;;;;;16.42;12.27;;;7.20;99.90;;;;;;5014015;28;20030;-74
2022/10/12 01:38:19;;;;;;;18.15;12.55;;;7.30;99.90;;;;;;5015430;28;20030;-74
2022/10/12 01:41:09;;;;;;;16.80;12.55;;;7.30;99.90;;;;;;5006269;28;20040;-74
2022/10/12 01:43:37;;;;;;;19.63;12.15;;;7.30;99.90;;;;;;5015645;28;20033;-74
2022/10/12 01:46:26;;;;;;;17.58;10.57;;;7.20;99.90;;;;;;5002857;28;20494;-73
2022/10/12 01:48:54;;;;;;;19.70;12.65;;;7.30;99.90;;;;;;5013954;28;20029;-74
2022/10/12 01:51:41;;;;;;;16.52;12.65;;;7.30;99.90;;;;;;5003990;28;20060;-73
2022/10/12 01:54:22;;;;;;;18.63;11.98;;;7.30;99.90;;;;;;5014099;28;20029;-74
2022/10/12 01:57:00;;;;;;;19.15;13.05;;;7.30;99.90;;;;;;5006211;28;20026;-73
2022/10/12 02:00:23;;;;;;;17.67;13.15;;;7.30;99.90;;;;;;5003366;28;20049;-73
2022/10/12 02:03:19;;;;;;;19.23;14.15;;;7.40;99.90;;;;;;4993286;28;20031;-72
2022/10/12 02:05:48;;;;;;;19.15;12.98;;;6.90;99.90;;;;;;4993257;28;20026;-73
2022/10/12 02:08:33;;;;;;;19.50;16.15;;;6.70;99.90;;;;;;5008025;28;20033;-73
2022/10/12 02:11:11;;;;;;;21.60;16.20;;;6.70;99.90;;;;;;5013922;28;20025;-73
2022/10/12 02:13:54;;;;;;;14.07;11.82;;;6.70;99.90;;;;;;5014872;28;20029;-72
2022/10/12 02:16:26;;;;;;;18.88;12.68;;;6.80;99.90;;;;;;5015077;28;20108;-73
2022/10/12 02:18:54;;;;;;;17.67;14.20;;;6.80;99.90;;;;;;5014762;28;20042;-73
2022/10/12 02:21:26;;;;;;;31.63;15.40;;;6.80;99.90;;;;;;5013655;28;20022;-73
2022/10/12 02:23:54;;;;;;;21.27;15.15;;;6.80;99.90;;;;;;5014848;28;20026;-73
2022/10/12 02:26:20;;;;;;;19.77;14.25;;;6.90;99.90;;;;;;5014703;28;20502;-73
2022/10/12 02:28:48;;;;;;;21.33;16.48;;;6.90;99.90;;;;;;5013078;28;20030;-73
2022/10/12 02:31:41;;;;;;;19.05;13.25;;;6.90;99.90;;;;;;5013502;28;20026;-74
2022/10/12 02:34:27;;;;;;;21.98;16.20;;;6.80;99.90;;;;;;5014635;28;20022;-75
2022/10/12 02:37:01;;;;;;;22.30;16.90;;;6.60;99.90;;;;;;5013162;28;20022;-73
2022/10/12 02:39:45;;;;;;;23.40;17.50;;;6.60;99.90;;;;;;5014455;28;20153;-74
2022/10/12 02:42:20;;;;;;;21.58;17.08;;;6.30;99.90;;;;;;5013369;28;20117;-73
2022/10/12 02:44:47;;;;;;;26.67;17.65;;;6.40;99.90;;;;;;5014219;28;20018;-73
2022/10/12 02:47:15;;;;;;;20.67;13.95;;;6.40;99.90;;;;;;5012935;28;20022;-73
2022/10/12 02:49:42;;;;;;;22.45;16.80;;;6.40;99.90;;;;;;5006630;28;20041;-73
2022/10/12 02:52:08;;;;;;;21.58;13.63;;;6.30;99.90;;;;;;5007914;28;20033;-73
2022/10/12 02:54:35;;;;;;;20.80;15.40;;;6.30;99.90;;;;;;5008356;28;20502;-73
2022/10/12 02:57:00;;;;;;;20.25;14.48;;;6.20;99.90;;;;;;4996413;28;20488;-74
2022/10/12 02:59:26;;;;;;;15.73;11.90;;;6.30;99.90;;;;;;5008485;28;20080;-73
2022/10/12 03:01:52;;;;;;;20.73;14.10;;;6.10;99.90;;;;;;4995866;28;20427;-73
2022/10/12 03:04:17;;;;;;;14.75;12.45;;;6.20;99.90;;;;;;5004821;28;20057;-74
2022/10/12 03:06:43;;;;;;;20.98;16.80;;;6.20;99.90;;;;;;5013931;28;20034;-73
2022/10/12 03:09:08;;;;;;;20.13;15.30;;;6.20;99.90;;;;;;5012551;28;20032;-73
2022/10/12 03:11:36;;;;;;;16.58;14.23;;;6.10;99.90;;;;;;5013913;28;20018;-73
2022/10/12 03:14:02;;;;;;;14.95;12.40;;;6.20;99.90;;;;;;5013862;28;20022;-73
2022/10/12 03:16:28;;;;;;;17.25;13.27;;;6.20;99.90;;;;;;5013810;28;20017;-73
2022/10/12 03:18:53;;;;;;;18.40;13.35;;;6.10;99.90;;;;;;5007171;28;20491;-74
2022/10/12 03:21:19;;;;;;;23.00;14.77;;;6.10;99.90;;;;;;5001809;28;20033;-73
2022/10/12 03:23:44;;;;;;;21.38;17.02;;;6.20;99.90;;;;;;5013742;28;20026;-74
2022/10/12 03:26:10;;;;;;;20.73;18.65;;;6.20;99.90;;;;;;5013683;28;20034;-74
2022/10/12 03:28:35;;;;;;;21.90;17.08;;;6.20;99.90;;;;;;5013190;28;20029;-73
2022/10/12 03:31:01;;;;;;;21.08;18.17;;;6.10;99.90;;;;;;5013564;28;20061;-74
2022/10/12 03:33:27;;;;;;;27.90;19.05;;;6.10;99.90;;;;;;5013534;28;20101;-73
2022/10/12 03:35:53;;;;;;;19.58;17.02;;;6.10;99.90;;;;;;5013394;28;20176;-73
2022/10/12 03:38:19;;;;;;;17.58;13.85;;;6.10;99.90;;;;;;5012023;28;20030;-72
2022/10/12 03:40:45;;;;;;;18.70;15.77;;;6.10;99.90;;;;;;5013741;28;20014;-72
2022/10/12 03:43:11;;;;;;;19.42;16.38;;;6.10;99.90;;;;;;5012182;28;20372;-72
2022/10/12 03:45:37;;;;;;;18.75;16.75;;;6.00;99.90;;;;;;5000286;28;20026;-72
2022/10/12 03:48:04;;;;;;;20.15;15.35;;;6.10;99.90;;;;;;5004743;28;20072;-72
2022/10/12 03:50:29;;;;;;;18.73;13.95;;;6.00;99.90;;;;;;4993392;28;20026;-73
2022/10/12 03:52:55;;;;;;;17.85;13.93;;;6.10;99.90;;;;;;5013403;28;20022;-71
2022/10/12 03:55:22;;;;;;;17.33;13.55;;;6.10;99.90;;;;;;5013245;28;20420;-73
2022/10/12 03:57:48;;;;;;;19.33;14.30;;;6.00;99.90;;;;;;5004006;28;20479;-72
2022/10/12 04:00:14;;;;;;;19.80;16.52;;;6.10;99.90;;;;;;5012936;28;20030;-72
2022/10/12 04:02:39;;;;;;;20.95;16.65;;;6.30;99.90;;;;;;5013067;28;20037;-72
2022/10/12 04:05:05;;;;;;;27.42;18.73;;;6.40;99.90;;;;;;4992410;28;20603;-73
2022/10/12 04:07:31;;;;;;;27.40;20.08;;;6.40;99.90;;;;;;5001167;28;20053;-75
2022/10/12 04:09:56;;;;;;;25.40;19.30;;;6.30;99.90;;;;;;5006888;28;20038;-73
2022/10/12 04:12:22;;;;;;;23.52;18.92;;;6.30;99.90;;;;;;5012894;28;20105;-73
2022/10/12 04:14:47;;;;;;;23.35;20.00;;;6.20;99.90;;;;;;5012749;28;20117;-72
2022/10/12 04:17:17;;;;;;;19.75;17.42;;;6.10;99.90;;;;;;4999676;28;20061;-74
2022/10/12 04:19:42;;;;;;;23.75;19.38;;;6.10;99.90;;;;;;5012605;28;20040;-72
2022/10/12 04:22:08;;;;;;;26.85;19.80;;;6.10;99.90;;;;;;5011447;28;20025;-72
2022/10/12 04:24:33;;;;;;;25.00;19.77;;;5.90;99.90;;;;;;5012714;28;20026;-73
2022/10/12 04:26:59;;;;;;;24.95;18.73;;;5.90;99.90;;;;;;5011153;28;20022;-75
2022/10/12 04:29:25;;;;;;;23.98;20.17;;;6.10;99.90;;;;;;5012334;28;20399;-72
2022/10/12 04:31:50;;;;;;;28.35;19.23;;;6.10;99.90;;;;;;5012463;28;20049;-73
2022/10/12 04:34:16;;;;;;;26.48;19.95;;;6.20;99.90;;;;;;5005706;28;20485;-73
2022/10/12 04:36:41;;;;;;;25.98;19.95;;;6.20;99.90;;;;;;5011134;28;20029;-73
2022/10/12 04:39:07;;;;;;;22.75;18.75;;;6.20;99.90;;;;;;5011399;28;20022;-73
2022/10/12 04:41:32;;;;;;;27.73;20.55;;;6.00;99.90;;;;;;4999633;28;20061;-73
2022/10/12 04:43:58;;;;;;;18.50;16.02;;;6.00;99.90;;;;;;5012303;28;20447;-74
2022/10/12 04:46:24;;;;;;;24.30;19.23;;;6.10;99.90;;;;;;5012303;28;20076;-73
2022/10/12 04:48:49;;;;;;;23.33;19.00;;;6.10;99.90;;;;;;5011567;28;20109;-73
2022/10/12 04:51:15;;;;;;;24.25;19.92;;;6.20;99.90;;;;;;4999895;28;20032;-73
2022/10/12 04:53:41;;;;;;;22.33;17.25;;;6.10;99.90;;;;;;4998913;28;20030;-73
2022/10/12 04:56:07;;;;;;;23.15;19.10;;;6.10;99.90;;;;;;5008773;28;20030;-73
2022/10/12 04:58:32;;;;;;;26.08;19.85;;;6.20;99.90;;;;;;5004439;28;20067;-73
2022/10/12 05:00:58;;;;;;;23.65;17.05;;;6.20;99.90;;;;;;5011970;28;20105;-73
2022/10/12 05:03:24;;;;;;;25.90;19.15;;;6.10;99.90;;;;;;4997912;28;20538;-74
2022/10/12 05:05:50;;;;;;;19.13;16.60;;;6.00;99.90;;;;;;5010806;28;20075;-74
2022/10/12 05:08:16;;;;;;;23.65;18.80;;;5.90;99.90;;;;;;4998258;28;20027;-74
2022/10/12 05:10:41;;;;;;;21.48;17.85;;;5.80;99.90;;;;;;5011408;28;20044;-73
2022/10/12 05:13:07;;;;;;;31.67;25.83;;;5.70;99.90;;;;;;4997493;28;20039;-75
2022/10/12 05:15:34;;;;;;;30.92;24.92;;;5.80;99.90;;;;;;5010652;28;20159;-75
2022/10/12 05:17:59;;;;;;;25.33;20.20;;;5.60;99.90;;;;;;5011675;28;20105;-73
2022/10/12 05:20:25;;;;;;;21.98;18.13;;;5.50;99.90;;;;;;5011794;28;20097;-74
2022/10/12 05:22:50;;;;;;;33.42;23.73;;;5.50;99.90;;;;;;4997499;28;20026;-73
2022/10/12 05:25:18;;;;;;;21.15;18.40;;;5.30;99.90;;;;;;4998549;28;20032;-73
2022/10/12 05:27:43;;;;;;;25.63;21.38;;;5.30;99.90;;;;;;5011739;28;20053;-73
2022/10/12 05:30:09;;;;;;;31.60;25.50;;;5.30;99.90;;;;;;4998901;28;20030;-73
2022/10/12 05:32:35;;;;;;;19.42;16.13;;;5.40;99.90;;;;;;5011699;28;20029;-73
2022/10/12 05:35:00;;;;;;;35.15;25.98;;;5.20;99.90;;;;;;4997681;28;20080;-73
2022/10/12 05:37:26;;;;;;;27.20;21.42;;;5.20;99.90;;;;;;5010317;28;20025;-72
2022/10/12 05:39:51;;;;;;;16.92;15.07;;;5.30;99.90;;;;;;5011600;28;20092;-72
2022/10/12 05:42:17;;;;;;;20.13;16.05;;;5.20;99.90;;;;;;5011748;28;20135;-72
2022/10/12 05:44:43;;;;;;;21.25;14.80;;;5.20;99.90;;;;;;5011608;28;20044;-72
2022/10/12 05:47:09;;;;;;;23.02;15.55;;;5.30;99.90;;;;;;5011425;28;20037;-72
2022/10/12 05:49:34;;;;;;;21.65;17.85;;;5.30;99.90;;;;;;5004773;28;20080;-71
2022/10/12 05:52:00;;;;;;;19.17;17.13;;;5.30;99.90;;;;;;5005257;28;20097;-71
2022/10/12 05:54:25;;;;;;;19.80;16.75;;;5.30;99.90;;;;;;5011601;28;20079;-73
2022/10/12 05:56:51;;;;;;;21.23;18.30;;;5.40;99.90;;;;;;5003165;28;20034;-72
2022/10/12 05:59:16;;;;;;;21.65;18.08;;;5.30;99.90;;;;;;5010043;28;20033;-73
2022/10/12 06:01:42;;;;;;;18.85;14.90;;;5.40;99.90;;;;;;4998416;28;20038;-72
2022/10/12 06:04:08;;;;;;;20.45;17.05;;;5.30;99.90;;;;;;5011473;28;20068;-72
2022/10/12 06:06:33;;;;;;;20.00;15.60;;;5.30;99.90;;;;;;5011458;28;20053;-72
2022/10/12 06:08:59;;;;;;;22.08;17.75;;;5.30;99.90;;;;;;5011125;28;20034;-72
2022/10/12 06:11:24;;;;;;;19.60;16.70;;;5.30;99.90;;;;;;5010243;28;20026;-74
2022/10/12 06:13:50;;;;;;;26.08;19.98;;;5.40;99.90;;;;;;5009990;28;20026;-72
2022/10/12 06:16:16;;;;;;;20.88;16.83;;;5.40;99.90;;;;;;5010053;28;20460;-72
2022/10/12 06:18:41;;;;;;;17.38;15.68;;;5.10;99.90;;;;;;5010846;28;20535;-73
2022/10/12 06:21:07;;;;;;;16.73;14.00;;;5.10;99.90;;;;;;5000845;28;20030;-72
2022/10/12 06:23:32;;;;;;;19.83;16.55;;;5.30;99.90;;;;;;5004361;28;20032;-72
2022/10/12 06:25:58;;;;;;;26.73;22.60;;;5.50;99.90;;;;;;4989807;28;20026;-72
2022/10/12 06:28:24;;;;;;;25.13;21.77;;;5.60;99.90;;;;;;5001789;28;20022;-72
2022/10/12 06:30:57;;;;;;;39.00;32.38;;;5.50;99.90;;;;;;5000169;28;20041;-72
2022/10/12 06:33:23;;;;;;;36.88;31.95;;;5.70;99.90;;;;;;5012333;28;20029;-72
2022/10/12 06:35:49;;;;;;;32.05;28.60;;;5.70;99.90;;;;;;5012453;28;20033;-72
2022/10/12 06:38:14;;;;;;;32.15;26.00;;;5.90;99.90;;;;;;5013264;28;20029;-72
2022/10/12 06:40:41;;;;;;;28.15;21.80;;;6.00;99.90;;;;;;5013504;28;20137;-72
2022/10/12 06:43:06;;;;;;;22.65;20.38;;;6.10;99.90;;;;;;5013320;28;20108;-72
2022/10/12 06:45:32;;;;;;;28.08;23.88;;;6.20;99.90;;;;;;5001473;28;20437;-72
2022/10/12 06:47:58;;;;;;;29.90;23.90;;;6.30;99.90;;;;;;4997829;28;20019;-72
2022/10/12 06:50:25;;;;;;;26.30;23.30;;;6.30;99.90;;;;;;4988669;28;20076;-72
2022/10/12 06:52:51;;;;;;;23.10;20.60;;;6.30;99.90;;;;;;5003873;28;20026;-72
2022/10/12 06:55:16;;;;;;;22.30;18.60;;;6.30;99.90;;;;;;5008079;28;20037;-72
2022/10/12 06:57:42;;;;;;;21.25;17.85;;;6.30;99.90;;;;;;5004894;28;20034;-72
2022/10/12 07:00:08;;;;;;;22.30;18.85;;;6.20;99.90;;;;;;5001072;28;20519;-72
2022/10/12 07:02:35;;;;;;;19.73;17.27;;;6.30;99.90;;;;;;4987964;28;20022;-74
2022/10/12 07:05:01;;;;;;;18.63;16.45;;;6.20;99.90;;;;;;5001272;28;20088;-72
2022/10/12 07:07:31;;;;;;;21.00;17.40;;;6.40;99.90;;;;;;5013752;28;20365;-73
2022/10/12 07:09:57;;;;;;;19.63;17.52;;;6.50;99.90;;;;;;5001123;28;20415;-73
2022/10/12 07:12:22;;;;;;;20.90;18.70;;;6.60;99.90;;;;;;5007351;28;20030;-72
2022/10/12 07:14:48;;;;;;;21.27;17.05;;;6.80;99.90;;;;;;5007520;28;20033;-74
2022/10/12 07:17:13;;;;;;;20.17;17.60;;;6.90;99.90;;;;;;5000785;28;20032;-74
2022/10/12 07:19:39;;;;;;;21.30;17.00;;;7.00;99.90;;;;;;5000828;28;20034;-73
2022/10/12 07:22:05;;;;;;;22.05;17.55;;;7.10;99.90;;;;;;5013793;28;20480;-74
2022/10/12 07:24:37;;;;;;;22.27;16.95;;;7.10;99.90;;;;;;5000800;28;20034;-75
2022/10/12 07:27:04;;;;;;;21.08;16.25;;;7.00;99.90;;;;;;5000011;28;20032;-72
2022/10/12 07:29:31;;;;;;;22.98;17.65;;;7.10;99.90;;;;;;5000362;28;20035;-72
2022/10/12 07:31:57;;;;;;;21.77;17.60;;;7.20;99.90;;;;;;5004986;28;20031;-72
2022/10/12 07:34:23;;;;;;;21.83;17.92;;;7.30;99.90;;;;;;5007077;28;20468;-73
2022/10/12 07:36:49;;;;;;;22.67;18.77;;;7.40;99.90;;;;;;5001745;28;20041;-75
2022/10/12 07:39:15;;;;;;;23.10;17.38;;;7.50;99.90;;;;;;5000467;28;20030;-73
2022/10/12 07:41:40;;;;;;;23.27;16.73;;;7.60;99.90;;;;;;5004575;28;20519;-73
2022/10/12 07:44:06;;;;;;;20.25;16.23;;;7.60;99.90;;;;;;5006984;28;20025;-73
2022/10/12 07:46:31;;;;;;;22.08;17.20;;;7.70;99.90;;;;;;5001721;28;20030;-73
2022/10/12 07:48:57;;;;;;;25.17;16.42;;;7.80;99.90;;;;;;5011268;28;20026;-74
2022/10/12 07:51:22;;;;;;;18.15;15.90;;;7.90;99.90;;;;;;5002001;28;20030;-74
2022/10/12 07:53:49;;;;;;;19.35;16.20;;;8.00;99.90;;;;;;5011811;28;20026;-74
2022/10/12 07:56:15;;;;;;;21.60;16.00;;;8.10;99.90;;;;;;5001880;28;20108;-74
2022/10/12 07:58:42;;;;;;;20.85;15.90;;;8.20;99.90;;;;;;5002215;28;20027;-74
2022/10/12 08:01:09;;;;;;;23.08;16.27;;;8.30;99.90;;;;;;5015567;28;20064;-74
2022/10/12 08:03:35;;;;;;;19.38;16.17;;;8.30;99.90;;;;;;5000386;28;20522;-74
2022/10/12 08:06:12;;;;;;;26.27;19.95;;;8.50;99.90;;;;;;5014987;28;20018;-73
2022/10/12 08:08:38;;;;;;;21.25;16.52;;;8.50;99.90;;;;;;5001106;28;20022;-74
2022/10/12 08:11:05;;;;;;;16.85;15.00;;;8.60;99.90;;;;;;5016574;28;20092;-74
2022/10/12 08:13:32;;;;;;;17.13;15.27;;;8.70;99.90;;;;;;5007135;28;20060;-73
2022/10/12 08:15:58;;;;;;;18.48;14.23;;;8.80;99.90;;;;;;5015366;28;20026;-73
2022/10/12 08:18:24;;;;;;;16.92;13.63;;;8.90;99.90;;;;;;4996397;28;20496;-74
2022/10/12 08:20:49;;;;;;;18.10;13.77;;;9.00;99.90;;;;;;5003336;28;20050;-73
2022/10/12 08:23:15;;;;;;;15.63;12.63;;;9.10;99.90;;;;;;5013148;28;20030;-72
2022/10/12 08:25:40;;;;;;;18.48;12.77;;;9.20;99.90;;;;;;5012969;28;20392;-73
2022/10/12 08:28:06;;;;;;;17.63;11.93;;;9.20;99.90;;;;;;5008206;28;20110;-73
2022/10/12 08:30:32;;;;;;;15.80;12.18;;;9.30;99.90;;;;;;5001292;28;20092;-74
2022/10/12 08:32:58;;;;;;;17.65;12.57;;;9.50;99.90;;;;;;5008101;28;20027;-74
2022/10/12 08:35:24;;;;;;;15.30;11.68;;;9.60;99.90;;;;;;5002825;28;20084;-73
2022/10/12 08:37:49;;;;;;;17.98;11.95;;;9.70;99.90;;;;;;5012157;28;20041;-72
2022/10/12 08:40:31;;;;;;;16.08;12.13;;;9.70;99.90;;;;;;5012114;28;20026;-72
2022/10/12 08:43:12;;;;;;;18.25;12.43;;;9.90;99.90;;;;;;5012023;28;20025;-72
2022/10/12 08:45:53;;;;;;;20.90;12.15;;;9.90;99.90;;;;;;5011295;28;20046;-73
2022/10/12 08:48:32;;;;;;;17.52;12.20;;;10.00;99.90;;;;;;5002069;28;20073;-74
2022/10/12 08:51:04;;;;;;;16.92;11.20;;;10.00;99.90;;;;;;5007672;28;20480;-73
2022/10/12 08:53:48;;;;;;;19.27;12.07;;;10.10;99.90;;;;;;5004847;28;20033;-74
2022/10/12 08:56:19;;;;;;;16.67;11.73;;;10.20;99.90;;;;;;4988904;28;20022;-74
2022/10/12 08:58:45;;;;;;;17.15;13.02;;;10.20;99.90;;;;;;4998492;28;20061;-73
2022/10/12 09:01:37;;;;;;;18.80;12.50;;;10.30;99.90;;;;;;5003788;28;20069;-74
2022/10/12 09:04:17;;;;;;;18.00;11.35;;;10.40;99.90;;;;;;5005809;28;20030;-73
2022/10/12 09:07:00;;;;;;;18.10;11.30;;;10.50;99.90;;;;;;5005365;28;20103;-73
2022/10/12 09:09:47;;;;;;;17.52;11.15;;;10.70;99.90;;;;;;5011428;28;20025;-73
2022/10/12 09:12:42;;;;;;;14.43;10.88;;;10.80;99.90;;;;;;4998620;28;20068;-73
2022/10/12 09:15:17;;;;;;;17.35;9.90;;;10.90;99.90;;;;;;4998812;28;20083;-73
2022/10/12 09:17:54;;;;;;;14.48;10.48;;;11.00;99.90;;;;;;5001314;28;20122;-73
2022/10/12 09:20:21;;;;;;;19.02;11.23;;;11.00;99.90;;;;;;5010582;28;20037;-73
2022/10/12 09:22:50;;;;;;;17.20;11.13;;;11.10;99.90;;;;;;5011949;28;20080;-74
2022/10/12 09:25:18;;;;;;;13.05;10.27;;;11.20;99.90;;;;;;5004973;28;20026;-73
2022/10/12 09:27:46;;;;;;;14.43;10.35;;;11.30;99.90;;;;;;5004585;28;20029;-74
2022/10/12 09:30:14;;;;;;;16.17;10.38;;;11.60;99.90;;;;;;5011514;28;20535;-75
2022/10/12 09:33:02;;;;;;;16.85;9.90;;;11.60;99.90;;;;;;5011834;28;20041;-73
2022/10/12 09:35:28;;;;;;;14.95;9.23;;;11.60;99.90;;;;;;5011721;28;20033;-73
2022/10/12 09:37:53;;;;;;;14.70;9.38;;;11.70;99.90;;;;;;5011460;28;20038;-73
2022/10/12 09:40:24;;;;;;;16.30;10.30;;;11.70;99.90;;;;;;5010288;28;20034;-74
2022/10/12 09:42:51;;;;;;;15.10;9.80;;;11.80;99.90;;;;;;4999020;28;20564;-74
2022/10/12 09:45:19;;;;;;;14.27;9.93;;;11.90;99.90;;;;;;5001416;28;20026;-74
2022/10/12 09:48:14;;;;;;;15.63;9.90;;;11.90;99.90;;;;;;5008840;28;20033;-74
2022/10/12 09:50:42;;;;;;;11.98;9.65;;;12.10;99.90;;;;;;5009314;28;20365;-74
2022/10/12 09:53:14;;;;;;;14.13;10.07;;;12.10;99.90;;;;;;5001137;28;20033;-75
2022/10/12 09:55:39;;;;;;;16.92;9.35;;;12.10;99.90;;;;;;5009524;28;20029;-74
2022/10/12 09:58:18;;;;;;;14.40;10.18;;;12.20;99.90;;;;;;5004370;28;20022;-74
2022/10/12 10:00:43;;;;;;;16.38;9.60;;;12.40;99.90;;;;;;5015686;28;20124;-77
2022/10/12 10:03:23;;;;;;;17.15;11.02;;;12.50;99.90;;;;;;5015295;28;20148;-74
2022/10/12 10:06:02;;;;;;;14.43;9.85;;;12.60;99.90;;;;;;4989466;28;20026;-74
2022/10/12 10:08:28;;;;;;;19.30;11.10;;;12.70;99.90;;;;;;5001987;28;20022;-76
2022/10/12 10:10:56;;;;;;;18.10;10.98;;;12.90;99.90;;;;;;5015369;28;20030;-75
2022/10/12 10:13:27;;;;;;;19.67;10.95;;;12.90;99.90;;;;;;5002187;28;20054;-74
2022/10/12 10:16:05;;;;;;;15.70;10.65;;;13.00;99.90;;;;;;5015202;28;20032;-73
2022/10/12 10:18:37;;;;;;;15.82;9.27;;;13.10;99.90;;;;;;5000500;28;20021;-74
2022/10/12 10:21:08;;;;;;;16.77;9.35;;;13.20;99.90;;;;;;5015041;28;20496;-74
2022/10/12 10:24:03;;;;;;;17.50;9.88;;;13.20;99.90;;;;;;5008714;28;20395;-74
2022/10/12 10:26:49;;;;;;;13.88;9.35;;;13.40;99.90;;;;;;5007385;28;20018;-74
2022/10/12 10:29:29;;;;;;;15.75;10.40;;;13.50;99.90;;;;;;5008228;28;20034;-74
2022/10/12 10:32:27;;;;;;;16.05;9.82;;;13.40;99.90;;;;;;4988234;28;20472;-74
2022/10/12 10:35:20;;;;;;;17.27;10.07;;;13.40;99.90;;;;;;5008301;28;20042;-74
2022/10/12 10:37:54;;;;;;;17.58;10.10;;;13.50;99.90;;;;;;5002947;28;20029;-75
2022/10/12 10:40:32;;;;;;;15.60;10.07;;;13.40;99.90;;;;;;5014627;28;20022;-74
2022/10/12 10:43:04;;;;;;;16.20;10.18;;;13.60;99.90;;;;;;5014733;28;20025;-74
2022/10/12 10:45:51;;;;;;;14.23;9.85;;;13.90;99.90;;;;;;5013443;28;20041;-74
2022/10/12 10:48:23;;;;;;;13.27;9.25;;;13.90;99.90;;;;;;5004841;28;20027;-73
2022/10/12 10:50:55;;;;;;;17.00;9.63;;;13.80;99.90;;;;;;4983851;28;20030;-73
2022/10/12 10:53:26;;;;;;;15.15;9.32;;;14.10;99.90;;;;;;5014526;28;20022;-73
2022/10/12 10:56:04;;;;;;;15.63;10.43;;;14.10;99.90;;;;;;5014269;28;20026;-73
2022/10/12 10:58:41;;;;;;;14.20;9.38;;;14.10;99.90;;;;;;5007711;28;20042;-74
2022/10/12 11:01:37;;;;;;;14.25;10.10;;;14.10;99.90;;;;;;5014315;28;20523;-73
2022/10/12 11:04:10;;;;;;;17.38;11.10;;;14.40;99.90;;;;;;5014219;28;20045;-73
2022/10/12 11:06:46;;;;;;;16.35;10.48;;;14.40;99.90;;;;;;5001129;28;20022;-73
2022/10/12 11:09:16;;;;;;;15.90;9.98;;;14.50;99.90;;;;;;5013809;28;20026;-73
2022/10/12 11:11:46;;;;;;;17.55;9.90;;;14.50;99.90;;;;;;5013995;28;20038;-73
2022/10/12 11:14:27;;;;;;;18.30;11.20;;;14.60;99.90;;;;;;5013988;28;20022;-74
2022/10/12 11:17:24;;;;;;;18.92;12.57;;;14.50;99.90;;;;;;5012283;28;20030;-73
2022/10/12 11:20:08;;;;;;;15.80;11.20;;;14.80;99.90;;;;;;5011609;28;20124;-75
2022/10/12 11:22:47;;;;;;;16.58;11.30;;;14.80;99.90;;;;;;5012507;28;20433;-75
2022/10/12 11:25:20;;;;;;;16.88;10.43;;;14.80;99.90;;;;;;5006314;28;20122;-75
2022/10/12 11:27:46;;;;;;;17.50;11.50;;;14.80;99.90;;;;;;4994572;28;20480;-75
2022/10/12 11:30:18;;;;;;;20.42;12.48;;;14.80;99.90;;;;;;5013362;28;20034;-75
2022/10/12 11:33:11;;;;;;;15.63;10.88;;;14.80;99.90;;;;;;4999223;28;20106;-74
2022/10/12 11:35:40;;;;;;;20.58;11.35;;;14.90;99.90;;;;;;4991793;28;20038;-74
2022/10/12 11:38:28;;;;;;;19.00;11.15;;;15.30;99.90;;;;;;5004790;28;20117;-74
2022/10/12 11:41:10;;;;;;;19.23;11.45;;;15.90;99.90;;;;;;5004265;28;20041;-74
2022/10/12 11:43:48;;;;;;;16.00;10.52;;;16.20;99.90;;;;;;5005257;28;20072;-75
2022/10/12 11:46:17;;;;;;;15.52;9.95;;;16.80;99.90;;;;;;5011585;28;20045;-74
2022/10/12 11:48:55;;;;;;;17.67;10.05;;;17.40;99.90;;;;;;5012059;28;20044;-75
2022/10/12 11:51:21;;;;;;;14.07;9.18;;;17.90;99.90;;;;;;4990320;28;20022;-76
2022/10/12 11:54:00;;;;;;;15.30;9.23;;;18.60;99.90;;;;;;5000160;28;20113;-76
2022/10/12 11:56:32;;;;;;;18.40;9.25;;;18.80;99.90;;;;;;5012189;28;20113;-76
2022/10/12 11:59:04;;;;;;;12.65;9.07;;;19.00;99.90;;;;;;4999837;28;20057;-76
2022/10/12 12:01:39;;;;;;;16.58;9.77;;;19.20;99.90;;;;;;5000988;28;20022;-76
2022/10/12 12:04:44;;;;;;;15.55;9.57;;;19.20;99.90;;;;;;5010977;28;20492;-76
2022/10/12 12:07:21;;;;;;;15.93;9.82;;;19.00;99.90;;;;;;4986872;28;20536;-76
2022/10/12 12:09:47;;;;;;;12.20;9.48;;;18.80;99.90;;;;;;4967616;28;20523;-76
2022/10/12 12:12:20;;;;;;;19.35;9.82;;;18.90;99.90;;;;;;4984953;28;20068;-76
2022/10/12 12:15:17;;;;;;;15.93;8.98;;;18.40;99.90;;;;;;4999917;28;20023;-76
2022/10/12 12:18:08;;;;;;;15.48;9.48;;;18.00;99.90;;;;;;5000176;28;20065;-76
2022/10/12 12:20:42;;;;;;;14.90;9.60;;;18.30;99.90;;;;;;4987759;28;20044;-75
2022/10/12 12:23:20;;;;;;;15.20;9.75;;;17.90;99.90;;;;;;4999765;28;20037;-76
2022/10/12 12:25:46;;;;;;;14.57;9.80;;;17.40;99.90;;;;;;5002381;28;20476;-76
2022/10/12 12:28:23;;;;;;;14.48;9.63;;;16.90;99.90;;;;;;5004903;28;20037;-75
2022/10/12 12:30:58;;;;;;;15.20;9.25;;;16.70;99.90;;;;;;5004597;28;20022;-76
2022/10/12 12:33:24;;;;;;;12.68;9.13;;;16.40;99.90;;;;;;4999632;28;20030;-76
2022/10/12 12:35:54;;;;;;;15.15;9.20;;;16.10;99.90;;;;;;4998441;28;20039;-75
2022/10/12 12:38:27;;;;;;;15.07;9.23;;;16.20;99.90;;;;;;4987298;28;20434;-76
2022/10/12 12:40:59;;;;;;;14.18;9.57;;;16.00;99.90;;;;;;4999120;28;20042;-76
2022/10/12 12:43:28;;;;;;;15.95;9.57;;;16.00;99.90;;;;;;5004009;28;20023;-76
2022/10/12 12:45:58;;;;;;;15.07;9.48;;;16.00;99.90;;;;;;5004654;28;20399;-76
2022/10/12 12:48:49;;;;;;;17.15;9.07;;;15.90;99.90;;;;;;5002127;28;20033;-75
2022/10/12 12:51:22;;;;;;;16.60;9.55;;;15.90;99.90;;;;;;5011009;28;20406;-76
2022/10/12 12:54:03;;;;;;;11.38;9.20;;;16.00;99.90;;;;;;5010725;28;20053;-76
2022/10/12 12:56:55;;;;;;;12.13;8.82;;;16.20;99.90;;;;;;5002931;28;20104;-75